Time;durP1;ratioP1;P1;durP2;ratioP2;P2;SDS_P1;SDS_P2;PMS_P1;PMS_P2;Temp;Humidity;BMP_temperature;BMP_pressure;BME280_temperature;BME280_humidity;BME280_pressure;Samples;Min_cycle;Max_cycle;Signal;HPM_P1;HPM_P2
2023/07/03 00:01:16;;;;;;;5.05;1.02;;;;;;;;;;5065567;28;20059;-48
2023/07/03 00:03:43;;;;;;;5.38;1.30;;;;;;;;;;5065403;28;20037;-44
2023/07/03 00:06:10;;;;;;;4.55;1.42;;;;;;;;;;5065687;28;20028;-44
2023/07/03 00:08:36;;;;;;;3.47;1.50;;;;;;;;;;5064918;28;20027;-46
2023/07/03 00:11:04;;;;;;;4.15;1.60;;;;;;;;;;5065834;28;20053;-52
2023/07/03 00:13:30;;;;;;;3.83;2.17;;;;;;;;;;5065421;28;20035;-49
2023/07/03 00:16:04;;;;;;;7.68;5.93;;;;;;;;;;5065858;28;20029;-47
2023/07/03 00:18:31;;;;;;;3.20;2.90;;;;;;;;;;5065224;28;20224;-48
2023/07/03 00:20:58;;;;;;;6.13;2.17;;;;;;;;;;5065556;28;20032;-52
2023/07/03 00:23:25;;;;;;;4.90;2.08;;;;;;;;;;5065310;28;20020;-43
2023/07/03 00:25:52;;;;;;;4.50;1.63;;;;;;;;;;5064842;28;20036;-48
2023/07/03 00:28:19;;;;;;;3.38;1.63;;;;;;;;;;5065167;28;20075;-46
2023/07/03 00:30:46;;;;;;;4.93;1.80;;;;;;;;;;5065345;28;20020;-46
2023/07/03 00:33:13;;;;;;;7.40;1.80;;;;;;;;;;5064906;28;20039;-49
2023/07/03 00:35:40;;;;;;;2.38;1.60;;;;;;;;;;5065232;28;20332;-47
2023/07/03 00:38:06;;;;;;;7.53;4.85;;;;;;;;;;5064860;28;20044;-48
2023/07/03 00:40:33;;;;;;;8.50;7.60;;;;;;;;;;5065075;28;20037;-46
2023/07/03 00:43:00;;;;;;;8.30;6.07;;;;;;;;;;5064924;28;20041;-47
2023/07/03 00:45:27;;;;;;;9.23;5.85;;;;;;;;;;5064858;28;20028;-47
2023/07/03 00:47:54;;;;;;;6.85;4.18;;;;;;;;;;5064647;28;20036;-44
2023/07/03 00:50:21;;;;;;;6.43;3.90;;;;;;;;;;5064892;28;20135;-49
2023/07/03 00:52:52;;;;;;;9.57;3.80;;;;;;;;;;5064551;28;20031;-45
2023/07/03 00:55:20;;;;;;;7.05;3.20;;;;;;;;;;5064646;28;20325;-46
2023/07/03 00:57:46;;;;;;;8.15;3.22;;;;;;;;;;5064478;28;20033;-47
2023/07/03 01:00:13;;;;;;;9.68;4.45;;;;;;;;;;5064095;28;20175;-49
2023/07/03 01:02:44;;;;;;;6.35;4.00;;;;;;;;;;5045970;28;20033;-46
2023/07/03 01:05:18;;;;;;;9.30;5.45;;;;;;;;;;5064548;28;20037;-45
2023/07/03 01:07:44;;;;;;;9.38;5.00;;;;;;;;;;5046554;28;20025;-52
2023/07/03 01:10:33;;;;;;;9.45;4.28;;;;;;;;;;5064297;28;20052;-47
2023/07/03 01:13:02;;;;;;;7.03;3.83;;;;;;;;;;5064227;28;20031;-48
2023/07/03 01:15:31;;;;;;;11.23;3.50;;;;;;;;;;5064290;28;20032;-43
2023/07/03 01:17:59;;;;;;;8.82;2.92;;;;;;;;;;5064300;28;20023;-49
2023/07/03 01:20:30;;;;;;;5.47;2.70;;;;;;;;;;5063401;28;20045;-54
2023/07/03 01:23:12;;;;;;;5.75;2.75;;;;;;;;;;5064036;28;20031;-53
2023/07/03 01:25:41;;;;;;;6.47;2.95;;;;;;;;;;5064361;28;20069;-50
2023/07/03 01:28:10;;;;;;;6.68;2.92;;;;;;;;;;5063895;28;20116;-46
2023/07/03 01:30:39;;;;;;;6.88;3.17;;;;;;;;;;5064382;28;20016;-47
2023/07/03 01:33:06;;;;;;;5.65;2.55;;;;;;;;;;5064048;28;20059;-45
2023/07/03 01:35:33;;;;;;;5.25;2.80;;;;;;;;;;5064087;28;20088;-48
2023/07/03 01:38:01;;;;;;;8.90;3.13;;;;;;;;;;5064063;28;20350;-48
2023/07/03 01:40:28;;;;;;;4.93;3.13;;;;;;;;;;5064105;28;20037;-50
2023/07/03 01:42:55;;;;;;;4.55;2.80;;;;;;;;;;5063709;28;20024;-44
2023/07/03 01:45:23;;;;;;;7.75;3.10;;;;;;;;;;5063923;28;20029;-50
2023/07/03 01:47:50;;;;;;;9.98;2.47;;;;;;;;;;5063763;28;20216;-47
2023/07/03 01:50:18;;;;;;;5.00;2.00;;;;;;;;;;5063879;28;20057;-46
2023/07/03 01:52:51;;;;;;;7.97;4.88;;;;;;;;;;5063762;28;20017;-47
2023/07/03 01:55:19;;;;;;;5.28;2.70;;;;;;;;;;5063614;28;20074;-51
2023/07/03 01:57:49;;;;;;;5.40;2.05;;;;;;;;;;5063630;28;20359;-46
2023/07/03 02:00:19;;;;;;;5.05;2.38;;;;;;;;;;5063297;28;20122;-46
2023/07/03 02:02:51;;;;;;;5.63;1.58;;;;;;;;;;5063681;28;20371;-49
2023/07/03 02:05:22;;;;;;;5.55;1.38;;;;;;;;;;5063786;28;20070;-50
2023/07/03 02:07:51;;;;;;;2.25;1.10;;;;;;;;;;5063604;28;20035;-49
2023/07/03 02:10:17;;;;;;;3.92;1.30;;;;;;;;;;5063751;28;20025;-51
2023/07/03 02:12:47;;;;;;;6.43;1.20;;;;;;;;;;5063481;28;20048;-48
2023/07/03 02:15:15;;;;;;;7.10;1.35;;;;;;;;;;5063461;28;20033;-42
2023/07/03 02:17:42;;;;;;;4.78;0.98;;;;;;;;;;5063308;28;20089;-46
2023/07/03 02:20:16;;;;;;;4.28;1.08;;;;;;;;;;5063813;28;20029;-46
2023/07/03 02:22:43;;;;;;;4.50;1.00;;;;;;;;;;5063233;28;20033;-55
2023/07/03 02:25:13;;;;;;;5.15;1.10;;;;;;;;;;5063816;28;20032;-42
2023/07/03 02:27:44;;;;;;;3.38;1.05;;;;;;;;;;5063466;28;20394;-45
2023/07/03 02:30:11;;;;;;;6.68;1.40;;;;;;;;;;5063518;28;20021;-46
2023/07/03 02:32:41;;;;;;;3.78;1.40;;;;;;;;;;5067338;28;20378;-44
2023/07/03 02:35:08;;;;;;;6.50;1.80;;;;;;;;;;5067505;28;20041;-42
2023/07/03 02:37:35;;;;;;;5.63;1.65;;;;;;;;;;5067105;28;20025;-48
2023/07/03 02:40:03;;;;;;;5.13;1.63;;;;;;;;;;5067303;28;20292;-47
2023/07/03 02:42:29;;;;;;;6.18;1.83;;;;;;;;;;5067127;28;20071;-42
2023/07/03 03:26:11;;;;;;;4.32;1.58;;;;;;;;;;5122269;27;20409;-56
2023/07/03 03:28:37;;;;;;;3.83;1.50;;;;;;;;;;5121794;28;20035;-53
2023/07/03 03:31:04;;;;;;;7.53;1.80;;;;;;;;;;5121811;28;20076;-57
2023/07/03 03:33:31;;;;;;;5.18;1.50;;;;;;;;;;5121505;28;20274;-56
2023/07/03 03:35:58;;;;;;;9.77;1.55;;;;;;;;;;5121731;28;20054;-55
2023/07/03 03:38:24;;;;;;;3.00;1.60;;;;;;;;;;5121533;28;20019;-55
2023/07/03 03:40:56;;;;;;;7.60;1.67;;;;;;;;;;5121395;28;20011;-56
2023/07/03 03:43:23;;;;;;;5.60;1.90;;;;;;;;;;5121458;28;20035;-54
2023/07/03 03:46:02;;;;;;;7.60;1.92;;;;;;;;;;5120210;28;20024;-56
2023/07/03 03:48:30;;;;;;;8.52;2.03;;;;;;;;;;5121353;28;20024;-61
2023/07/03 03:50:57;;;;;;;5.47;1.80;;;;;;;;;;5120191;28;20059;-63
2023/07/03 03:53:24;;;;;;;5.82;1.90;;;;;;;;;;5121126;28;20057;-54
2023/07/03 03:55:51;;;;;;;3.13;1.95;;;;;;;;;;5121383;28;20038;-56
2023/07/03 03:58:18;;;;;;;10.52;1.90;;;;;;;;;;5121144;28;20034;-54
2023/07/03 04:00:45;;;;;;;3.55;1.58;;;;;;;;;;5121195;28;20027;-52
2023/07/03 04:03:12;;;;;;;5.90;1.42;;;;;;;;;;5121104;28;20427;-53
2023/07/03 04:05:41;;;;;;;3.08;1.50;;;;;;;;;;5120992;28;20031;-53
2023/07/03 04:08:07;;;;;;;8.15;1.65;;;;;;;;;;5120953;28;20184;-53
2023/07/03 04:10:34;;;;;;;9.68;1.35;;;;;;;;;;5121414;28;20067;-52
2023/07/03 04:13:01;;;;;;;9.27;1.58;;;;;;;;;;5120933;28;20047;-56
2023/07/03 04:15:30;;;;;;;4.00;1.30;;;;;;;;;;5120581;28;20028;-52
2023/07/03 04:17:57;;;;;;;5.20;1.65;;;;;;;;;;5120863;28;20035;-53
2023/07/03 04:20:25;;;;;;;5.15;1.58;;;;;;;;;;5121168;28;20036;-55
2023/07/03 04:22:51;;;;;;;7.63;1.30;;;;;;;;;;5120670;28;20315;-58
2023/07/03 04:25:19;;;;;;;5.85;1.45;;;;;;;;;;5116993;28;20352;-53
2023/07/03 04:27:45;;;;;;;5.75;1.55;;;;;;;;;;5107104;28;20032;-55
2023/07/03 04:30:46;;;;;;;7.53;1.30;;;;;;;;;;5107356;28;20027;-54
2023/07/03 04:33:12;;;;;;;6.57;1.45;;;;;;;;;;5106789;28;20028;-53
2023/07/03 04:35:39;;;;;;;4.88;1.20;;;;;;;;;;5106605;28;20092;-52
2023/07/03 04:38:06;;;;;;;8.27;1.27;;;;;;;;;;5106786;28;20028;-53
2023/07/03 04:40:34;;;;;;;8.20;1.40;;;;;;;;;;5107208;28;20032;-53
2023/07/03 04:43:01;;;;;;;3.45;1.02;;;;;;;;;;5106600;28;20028;-52
2023/07/03 04:45:28;;;;;;;7.28;1.50;;;;;;;;;;5107166;28;20035;-54
2023/07/03 04:47:55;;;;;;;4.30;1.05;;;;;;;;;;5106678;28;20061;-52
2023/07/03 04:50:24;;;;;;;8.00;1.40;;;;;;;;;;5106858;28;20099;-54
2023/07/03 04:52:52;;;;;;;8.70;1.42;;;;;;;;;;5106521;28;20323;-53
2023/07/03 04:55:18;;;;;;;5.38;1.50;;;;;;;;;;5106815;28;20047;-55
2023/07/03 04:57:45;;;;;;;10.32;1.80;;;;;;;;;;5106288;28;20057;-58
2023/07/03 05:00:17;;;;;;;5.57;1.38;;;;;;;;;;5106834;28;20054;-53
2023/07/03 05:02:44;;;;;;;3.80;1.20;;;;;;;;;;5106281;28;20020;-48
2023/07/03 05:05:11;;;;;;;8.88;1.50;;;;;;;;;;5105007;28;20320;-49
2023/07/03 05:07:38;;;;;;;7.65;1.42;;;;;;;;;;5097401;28;20028;-47
2023/07/03 05:10:07;;;;;;;6.32;1.27;;;;;;;;;;5096225;28;20237;-48
2023/07/03 05:12:33;;;;;;;7.75;1.30;;;;;;;;;;5105954;28;20028;-52
2023/07/03 05:15:00;;;;;;;5.72;1.52;;;;;;;;;;5105985;28;20030;-48
2023/07/03 05:17:27;;;;;;;6.20;1.30;;;;;;;;;;5106013;28;20020;-51
2023/07/03 05:19:53;;;;;;;8.07;1.38;;;;;;;;;;5106264;28;20062;-52
2023/07/03 05:22:20;;;;;;;6.13;1.35;;;;;;;;;;5106141;28;20083;-52
2023/07/03 05:24:47;;;;;;;4.57;1.15;;;;;;;;;;5105776;28;20382;-49
2023/07/03 05:27:13;;;;;;;8.05;1.27;;;;;;;;;;5105767;28;20042;-56
2023/07/03 05:29:40;;;;;;;6.30;1.27;;;;;;;;;;5106339;28;20028;-57
2023/07/03 05:32:06;;;;;;;11.65;1.80;;;;;;;;;;5105859;28;20027;-53
2023/07/03 05:34:37;;;;;;;4.65;1.10;;;;;;;;;;5105741;28;20069;-48
2023/07/03 05:37:04;;;;;;;7.75;1.42;;;;;;;;;;5104769;28;20134;-50
2023/07/03 05:39:31;;;;;;;6.38;1.08;;;;;;;;;;5105660;28;20034;-57
2023/07/03 05:41:57;;;;;;;5.57;1.15;;;;;;;;;;5105477;28;20398;-53
2023/07/03 05:44:24;;;;;;;3.45;0.82;;;;;;;;;;5105499;28;20203;-50
2023/07/03 05:46:51;;;;;;;3.38;1.02;;;;;;;;;;5104966;28;20074;-49
2023/07/03 05:49:17;;;;;;;5.70;0.90;;;;;;;;;;5105567;28;20387;-48
2023/07/03 05:51:44;;;;;;;4.95;1.00;;;;;;;;;;5105335;28;20032;-48
2023/07/03 05:54:11;;;;;;;4.03;1.27;;;;;;;;;;5105369;28;20061;-48
2023/07/03 05:56:37;;;;;;;6.38;1.20;;;;;;;;;;5105076;28;20031;-50
2023/07/03 05:59:04;;;;;;;5.07;1.25;;;;;;;;;;5105486;28;20296;-51
2023/07/03 06:01:30;;;;;;;5.70;1.30;;;;;;;;;;5105129;28;20020;-54
2023/07/03 06:03:58;;;;;;;4.90;1.30;;;;;;;;;;5105142;28;20040;-49
2023/07/03 06:06:24;;;;;;;8.23;1.10;;;;;;;;;;5105021;28;20028;-50
2023/07/03 06:08:51;;;;;;;6.20;1.10;;;;;;;;;;5105083;28;20207;-48
2023/07/03 06:11:17;;;;;;;3.30;0.95;;;;;;;;;;5104905;28;20051;-51
2023/07/03 06:13:44;;;;;;;4.95;0.93;;;;;;;;;;5105040;28;20044;-53
2023/07/03 06:16:10;;;;;;;6.25;1.15;;;;;;;;;;5105076;28;20020;-55
2023/07/03 06:18:37;;;;;;;6.90;1.30;;;;;;;;;;5104829;28;20043;-52
2023/07/03 06:21:03;;;;;;;7.18;1.10;;;;;;;;;;5104994;28;20087;-48
2023/07/03 06:23:30;;;;;;;4.72;0.82;;;;;;;;;;5104694;28;20092;-47
2023/07/03 06:25:57;;;;;;;9.27;1.15;;;;;;;;;;5104607;28;20056;-52
2023/07/03 06:28:23;;;;;;;5.88;1.00;;;;;;;;;;5104544;28;20027;-56
2023/07/03 06:30:50;;;;;;;4.60;1.17;;;;;;;;;;5104919;28;20028;-47
2023/07/03 06:33:17;;;;;;;2.95;1.10;;;;;;;;;;5104760;28;20094;-50
2023/07/03 06:35:43;;;;;;;5.25;1.40;;;;;;;;;;5104351;28;20027;-54
2023/07/03 06:38:10;;;;;;;3.67;1.20;;;;;;;;;;5104598;28;20020;-53
2023/07/03 06:40:37;;;;;;;7.65;1.38;;;;;;;;;;5104991;28;20040;-49
2023/07/03 06:43:03;;;;;;;5.22;1.20;;;;;;;;;;5104288;28;20046;-51
2023/07/03 06:45:30;;;;;;;7.95;1.13;;;;;;;;;;5104933;28;20032;-47
2023/07/03 06:47:56;;;;;;;6.65;1.23;;;;;;;;;;5104527;28;20036;-51
2023/07/03 06:50:23;;;;;;;4.78;0.98;;;;;;;;;;5104479;28;20036;-51
2023/07/03 06:52:50;;;;;;;6.53;1.40;;;;;;;;;;5104423;28;20252;-51
2023/07/03 06:55:16;;;;;;;6.43;1.10;;;;;;;;;;5104717;28;20040;-60
2023/07/03 06:57:43;;;;;;;7.93;1.40;;;;;;;;;;5104181;28;20027;-49
2023/07/03 07:00:10;;;;;;;4.70;1.27;;;;;;;;;;5104716;28;20028;-55
2023/07/03 07:02:36;;;;;;;3.30;1.27;;;;;;;;;;5104234;28;20051;-49
2023/07/03 07:05:03;;;;;;;6.95;1.40;;;;;;;;;;5104467;28;20032;-49
2023/07/03 07:07:29;;;;;;;6.22;1.50;;;;;;;;;;5104148;28;20044;-49
2023/07/03 07:09:56;;;;;;;8.73;1.17;;;;;;;;;;5104538;28;20100;-52
2023/07/03 07:12:23;;;;;;;4.93;1.27;;;;;;;;;;5103990;28;20382;-50
2023/07/03 07:14:49;;;;;;;5.78;1.25;;;;;;;;;;5104299;28;20184;-53
2023/07/03 07:17:16;;;;;;;4.63;1.27;;;;;;;;;;5104101;28;20055;-53
2023/07/03 07:19:42;;;;;;;6.80;1.20;;;;;;;;;;5104209;28;20028;-47
2023/07/03 07:22:09;;;;;;;6.63;1.00;;;;;;;;;;5104055;28;20032;-49
2023/07/03 07:24:35;;;;;;;5.03;1.30;;;;;;;;;;5103928;28;20055;-54
2023/07/03 07:27:04;;;;;;;4.78;1.27;;;;;;;;;;5103962;28;20065;-48
2023/07/03 07:29:31;;;;;;;5.50;1.08;;;;;;;;;;5104136;28;20039;-49
2023/07/03 07:31:58;;;;;;;5.80;1.30;;;;;;;;;;5103936;28;20039;-55
2023/07/03 07:34:25;;;;;;;4.68;1.17;;;;;;;;;;5104235;28;20212;-51
2023/07/03 07:36:51;;;;;;;7.15;1.20;;;;;;;;;;5103843;28;20071;-52
2023/07/03 07:39:22;;;;;;;7.82;1.27;;;;;;;;;;5103983;28;20371;-50
2023/07/03 07:41:51;;;;;;;10.25;1.10;;;;;;;;;;5103661;28;20323;-53
2023/07/03 07:44:18;;;;;;;3.80;1.13;;;;;;;;;;5104173;28;20035;-52
2023/07/03 07:46:44;;;;;;;5.63;1.25;;;;;;;;;;5103749;28;20055;-60
2023/07/03 07:49:11;;;;;;;6.65;1.13;;;;;;;;;;5103829;28;20032;-48
2023/07/03 07:51:39;;;;;;;5.43;1.60;;;;;;;;;;5103737;28;20046;-57
2023/07/03 07:54:06;;;;;;;12.98;1.45;;;;;;;;;;5103776;28;20058;-51
2023/07/03 07:56:32;;;;;;;4.28;1.00;;;;;;;;;;5103541;28;20028;-53
2023/07/03 07:58:59;;;;;;;4.07;1.38;;;;;;;;;;5103873;28;20031;-50
2023/07/03 08:01:26;;;;;;;8.20;1.67;;;;;;;;;;5105555;28;20030;-53
2023/07/03 08:03:52;;;;;;;5.15;1.40;;;;;;;;;;5107450;28;20334;-51
2023/07/03 08:06:19;;;;;;;7.90;1.50;;;;;;;;;;5107367;28;20043;-53
2023/07/03 08:08:46;;;;;;;6.10;1.50;;;;;;;;;;5107531;28;20040;-52
2023/07/03 08:11:13;;;;;;;4.10;1.30;;;;;;;;;;5107567;28;20081;-51
2023/07/03 08:13:40;;;;;;;8.35;1.48;;;;;;;;;;5107184;28;20287;-54
2023/07/03 08:16:09;;;;;;;5.32;1.38;;;;;;;;;;5107109;28;20310;-52
2023/07/03 08:18:35;;;;;;;5.65;1.70;;;;;;;;;;5107098;28;20024;-51
2023/07/03 08:21:02;;;;;;;4.35;1.30;;;;;;;;;;5107067;28;20357;-51
2023/07/03 08:23:30;;;;;;;7.88;1.30;;;;;;;;;;5107313;28;20197;-54
2023/07/03 08:25:57;;;;;;;4.15;1.10;;;;;;;;;;5106896;28;20036;-54
2023/07/03 08:28:23;;;;;;;2.85;1.42;;;;;;;;;;5106887;28;20024;-53
2023/07/03 08:30:50;;;;;;;5.57;1.42;;;;;;;;;;5106900;28;20028;-48
2023/07/03 08:33:17;;;;;;;4.88;1.40;;;;;;;;;;5107404;28;20046;-50
2023/07/03 08:35:44;;;;;;;7.65;1.42;;;;;;;;;;5105525;28;20223;-50
2023/07/03 08:38:10;;;;;;;6.60;1.50;;;;;;;;;;5106959;28;20032;-53
2023/07/03 08:40:37;;;;;;;3.90;1.33;;;;;;;;;;5106983;28;20024;-49
2023/07/03 08:43:06;;;;;;;6.20;1.30;;;;;;;;;;5106596;28;20250;-52
2023/07/03 08:45:37;;;;;;;7.72;1.30;;;;;;;;;;5107150;28;20040;-47
2023/07/03 08:48:06;;;;;;;3.67;1.13;;;;;;;;;;5106591;28;20035;-50
2023/07/03 08:50:33;;;;;;;5.55;1.40;;;;;;;;;;5107070;28;20055;-54
2023/07/03 08:53:04;;;;;;;4.85;1.33;;;;;;;;;;5106633;28;20036;-48
2023/07/03 08:55:34;;;;;;;7.15;1.20;;;;;;;;;;5106756;28;20039;-49
2023/07/03 08:58:01;;;;;;;6.40;1.40;;;;;;;;;;5106538;28;20200;-54
2023/07/03 09:00:30;;;;;;;6.45;1.60;;;;;;;;;;5106871;28;20031;-50
2023/07/03 09:02:57;;;;;;;4.38;1.50;;;;;;;;;;5106262;28;20319;-51
2023/07/03 09:05:42;;;;;;;6.25;1.52;;;;;;;;;;5106785;28;20026;-55
2023/07/03 09:08:12;;;;;;;5.03;1.35;;;;;;;;;;5106375;28;20031;-52
2023/07/03 09:10:42;;;;;;;4.57;1.40;;;;;;;;;;5106145;28;20032;-52
2023/07/03 09:13:39;;;;;;;6.40;1.52;;;;;;;;;;5106453;28;20032;-48
2023/07/03 09:16:12;;;;;;;8.07;1.63;;;;;;;;;;5089723;28;20036;-47
2023/07/03 09:18:47;;;;;;;6.57;1.13;;;;;;;;;;5105923;28;20322;-50
2023/07/03 09:21:13;;;;;;;6.20;1.30;;;;;;;;;;5105969;28;20012;-52
2023/07/03 09:23:50;;;;;;;6.20;1.35;;;;;;;;;;5105965;28;20043;-53
2023/07/03 09:26:16;;;;;;;6.32;1.70;;;;;;;;;;5105934;28;20040;-50
2023/07/03 09:28:43;;;;;;;8.48;1.92;;;;;;;;;;5105980;28;20238;-50
2023/07/03 09:31:10;;;;;;;6.15;1.85;;;;;;;;;;5105749;28;20015;-48
2023/07/03 09:33:37;;;;;;;3.97;1.20;;;;;;;;;;5105635;28;20035;-52
2023/07/03 09:36:04;;;;;;;6.70;1.58;;;;;;;;;;5105728;28;20089;-48
2023/07/03 09:38:31;;;;;;;6.28;1.55;;;;;;;;;;5105668;28;20016;-55
2023/07/03 09:41:03;;;;;;;3.75;1.40;;;;;;;;;;5105556;28;20311;-49
2023/07/03 09:43:30;;;;;;;6.72;1.52;;;;;;;;;;5105677;28;20024;-50
2023/07/03 09:46:14;;;;;;;6.45;1.40;;;;;;;;;;5105477;28;20342;-54
2023/07/03 09:48:41;;;;;;;5.47;1.50;;;;;;;;;;5105337;28;20030;-51
2023/07/03 09:51:20;;;;;;;7.20;1.45;;;;;;;;;;5104491;28;20080;-47
2023/07/03 09:53:47;;;;;;;10.23;1.63;;;;;;;;;;5105520;28;20039;-51
2023/07/03 09:56:16;;;;;;;12.75;1.60;;;;;;;;;;5105430;28;20189;-56
2023/07/03 09:58:47;;;;;;;5.95;1.35;;;;;;;;;;5105146;28;20230;-56
2023/07/03 10:01:18;;;;;;;7.18;1.75;;;;;;;;;;5105147;28;20215;-52
2023/07/03 10:03:45;;;;;;;4.97;1.75;;;;;;;;;;5095254;28;20158;-49
2023/07/03 10:06:21;;;;;;;9.63;2.08;;;;;;;;;;5084755;28;20074;-49
2023/07/03 10:08:50;;;;;;;5.03;1.80;;;;;;;;;;5084850;28;20037;-51
2023/07/03 10:11:21;;;;;;;7.40;1.98;;;;;;;;;;5084680;28;20067;-52
2023/07/03 10:13:53;;;;;;;5.93;2.20;;;;;;;;;;5084677;28;20036;-49
2023/07/03 10:16:21;;;;;;;7.70;1.83;;;;;;;;;;5084520;28;20066;-48
2023/07/03 10:18:51;;;;;;;7.50;1.70;;;;;;;;;;5084750;28;20342;-49
2023/07/03 10:21:20;;;;;;;3.95;1.65;;;;;;;;;;5084787;28;20031;-51
2023/07/03 10:23:47;;;;;;;9.70;1.70;;;;;;;;;;5083924;28;20032;-50
2023/07/03 10:26:21;;;;;;;6.70;1.83;;;;;;;;;;5101003;28;20035;-54
2023/07/03 10:28:59;;;;;;;5.10;1.67;;;;;;;;;;5103645;28;20066;-53
2023/07/03 10:31:39;;;;;;;5.40;1.38;;;;;;;;;;5104459;28;20039;-47
2023/07/03 10:34:08;;;;;;;6.63;1.58;;;;;;;;;;5104738;28;20026;-53
2023/07/03 10:36:35;;;;;;;5.72;1.83;;;;;;;;;;5104357;28;20308;-50
2023/07/03 10:39:07;;;;;;;5.70;1.67;;;;;;;;;;5104639;28;20299;-53
2023/07/03 10:41:34;;;;;;;6.38;2.00;;;;;;;;;;5104518;28;20061;-58
2023/07/03 10:44:08;;;;;;;9.45;2.45;;;;;;;;;;5104484;28;20038;-55
2023/07/03 10:46:38;;;;;;;7.10;2.90;;;;;;;;;;5104392;28;20301;-53
2023/07/03 10:49:07;;;;;;;8.00;2.97;;;;;;;;;;5104409;28;20051;-52
2023/07/03 10:51:38;;;;;;;6.90;2.38;;;;;;;;;;5104343;28;20039;-48
2023/07/03 10:54:08;;;;;;;5.63;2.42;;;;;;;;;;5104348;28;20039;-48
2023/07/03 10:56:55;;;;;;;5.60;2.15;;;;;;;;;;5101703;28;20100;-51
2023/07/03 10:59:35;;;;;;;5.93;2.45;;;;;;;;;;5103604;28;20232;-48
2023/07/03 11:02:08;;;;;;;5.13;2.85;;;;;;;;;;5103991;28;20028;-53
2023/07/03 11:04:39;;;;;;;7.85;2.55;;;;;;;;;;5104451;28;20032;-51
2023/07/03 11:07:07;;;;;;;6.87;2.50;;;;;;;;;;5104212;28;20036;-49
2023/07/03 11:09:34;;;;;;;8.55;2.83;;;;;;;;;;5104587;28;20027;-50
2023/07/03 11:12:10;;;;;;;7.90;2.72;;;;;;;;;;5104535;28;20080;-50
2023/07/03 11:14:52;;;;;;;7.13;2.80;;;;;;;;;;5104285;28;20070;-52
2023/07/03 11:17:29;;;;;;;8.25;2.78;;;;;;;;;;5104078;28;20069;-55
2023/07/03 11:20:14;;;;;;;8.13;2.90;;;;;;;;;;5102877;28;20047;-46
2023/07/03 11:22:45;;;;;;;9.43;2.78;;;;;;;;;;5103911;28;20090;-47
2023/07/03 11:25:21;;;;;;;6.13;2.22;;;;;;;;;;5103243;28;20066;-49
2023/07/03 11:28:07;;;;;;;12.77;2.53;;;;;;;;;;5097479;28;20324;-48
2023/07/03 11:30:34;;;;;;;6.68;2.20;;;;;;;;;;5088673;28;20062;-47
2023/07/03 11:33:01;;;;;;;4.88;2.20;;;;;;;;;;5095272;28;20203;-47
2023/07/03 11:35:28;;;;;;;6.00;2.45;;;;;;;;;;5103009;28;20036;-48
2023/07/03 11:38:04;;;;;;;6.15;2.70;;;;;;;;;;5108183;28;20016;-47
2023/07/03 11:40:38;;;;;;;5.05;2.20;;;;;;;;;;5108521;28;20052;-47
2023/07/03 11:43:22;;;;;;;5.13;2.20;;;;;;;;;;5107833;28;20035;-49
2023/07/03 11:46:08;;;;;;;5.20;2.08;;;;;;;;;;5107889;28;20047;-55
2023/07/03 11:48:38;;;;;;;5.38;1.65;;;;;;;;;;5106402;28;20036;-52
2023/07/03 11:51:10;;;;;;;3.50;1.55;;;;;;;;;;5107254;28;20103;-50
2023/07/03 11:53:37;;;;;;;;;;;;;;;;;;5106412;28;20107;-57
2023/07/03 11:56:04;;;;;;;8.82;1.75;;;;;;;;;;5107888;28;19900;-54
2023/07/03 11:58:35;;;;;;;4.13;1.70;;;;;;;;;;5106819;28;20020;-58
2023/07/03 12:01:20;;;;;;;5.03;1.85;;;;;;;;;;5107571;28;20324;-53
2023/07/03 12:03:51;;;;;;;4.95;1.88;;;;;;;;;;5105309;28;20227;-54
2023/07/03 12:06:36;;;;;;;16.77;3.90;;;;;;;;;;5106569;28;20044;-55
2023/07/03 12:09:21;;;;;;;13.45;2.65;;;;;;;;;;5107596;28;20024;-54
2023/07/03 12:12:07;;;;;;;16.83;3.40;;;;;;;;;;5107108;28;20035;-54
2023/07/03 12:15:14;;;;;;;15.23;3.00;;;;;;;;;;5093749;28;20078;-54
2023/07/03 12:17:35;;;;;;;12.18;2.47;;;;;;;;;;5103176;28;20039;-54
2023/07/03 12:20:11;;;;;;;12.75;3.00;;;;;;;;;;5107671;28;20275;-58
2023/07/03 12:22:40;;;;;;;17.17;2.80;;;;;;;;;;5107147;28;20039;-54
2023/07/03 12:25:09;;;;;;;10.45;2.72;;;;;;;;;;5106931;28;20044;-52
2023/07/03 12:27:36;;;;;;;10.10;2.40;;;;;;;;;;5107070;28;20087;-53
2023/07/03 12:30:03;;;;;;;10.95;2.33;;;;;;;;;;5107457;28;20351;-54
2023/07/03 12:32:31;;;;;;;14.07;2.30;;;;;;;;;;5106811;28;20036;-53
2023/07/03 12:35:10;;;;;;;12.23;2.58;;;;;;;;;;5106889;28;20036;-52
2023/07/03 12:37:41;;;;;;;8.02;2.10;;;;;;;;;;5106752;28;20028;-59
2023/07/03 12:40:08;;;;;;;31.17;2.90;;;;;;;;;;5107204;28;20040;-53
2023/07/03 12:42:35;;;;;;;10.98;2.42;;;;;;;;;;5106813;28;20016;-56
2023/07/03 12:45:13;;;;;;;8.40;2.42;;;;;;;;;;5107012;28;20040;-53
2023/07/03 12:47:40;;;;;;;5.85;2.30;;;;;;;;;;5106225;28;20036;-53
2023/07/03 12:50:07;;;;;;;10.85;2.30;;;;;;;;;;5107129;28;20237;-51
2023/07/03 12:52:35;;;;;;;12.80;2.00;;;;;;;;;;5106515;28;20077;-53
2023/07/03 12:55:03;;;;;;;7.47;2.03;;;;;;;;;;5106930;28;20043;-53
2023/07/03 12:57:31;;;;;;;5.82;2.13;;;;;;;;;;5106505;28;20028;-53
2023/07/03 12:59:58;;;;;;;7.95;2.45;;;;;;;;;;5106831;28;20052;-53
2023/07/03 13:02:29;;;;;;;10.57;2.97;;;;;;;;;;5106313;28;20012;-53
2023/07/03 13:04:57;;;;;;;15.10;2.92;;;;;;;;;;5106493;28;20032;-53
2023/07/03 13:07:24;;;;;;;15.23;2.85;;;;;;;;;;5106228;28;20034;-52
2023/07/03 13:09:55;;;;;;;12.77;3.28;;;;;;;;;;5106646;28;20035;-50
2023/07/03 13:12:22;;;;;;;20.88;3.17;;;;;;;;;;5106068;28;20334;-51
2023/07/03 13:15:06;;;;;;;18.17;2.78;;;;;;;;;;5106188;28;20060;-58
2023/07/03 13:17:36;;;;;;;11.57;3.05;;;;;;;;;;5105811;28;20377;-55
2023/07/03 13:20:21;;;;;;;17.65;3.20;;;;;;;;;;5106317;28;20040;-53
2023/07/03 13:22:50;;;;;;;15.23;2.92;;;;;;;;;;5105817;28;20236;-55
2023/07/03 13:25:27;;;;;;;16.67;3.03;;;;;;;;;;5106123;28;20104;-52
2023/07/03 13:27:54;;;;;;;14.68;2.97;;;;;;;;;;5105820;28;20061;-53
2023/07/03 13:30:22;;;;;;;10.65;2.83;;;;;;;;;;5106138;28;20106;-58
2023/07/03 13:32:56;;;;;;;9.25;2.78;;;;;;;;;;5105847;28;20207;-56
2023/07/03 13:35:30;;;;;;;12.27;2.58;;;;;;;;;;5106178;28;20215;-57
2023/07/03 13:38:18;;;;;;;11.20;2.97;;;;;;;;;;5105678;28;20036;-57
2023/07/03 13:40:46;;;;;;;6.55;2.28;;;;;;;;;;5105482;28;20028;-52
2023/07/03 13:43:13;;;;;;;13.27;2.58;;;;;;;;;;5105610;28;20327;-54
2023/07/03 13:45:39;;;;;;;7.65;2.25;;;;;;;;;;5105565;28;20027;-54
2023/07/03 13:48:06;;;;;;;12.98;2.85;;;;;;;;;;5105348;28;20028;-54
2023/07/03 13:50:33;;;;;;;8.05;2.63;;;;;;;;;;5105943;28;20036;-51
2023/07/03 13:53:01;;;;;;;9.20;2.53;;;;;;;;;;5105504;28;20093;-57
2023/07/03 13:55:27;;;;;;;11.32;2.70;;;;;;;;;;5105529;28;20038;-54
2023/07/03 13:57:54;;;;;;;19.75;3.13;;;;;;;;;;5104764;28;20028;-54
2023/07/03 14:00:22;;;;;;;12.65;2.25;;;;;;;;;;5104035;28;20023;-55
2023/07/03 14:02:48;;;;;;;17.30;2.67;;;;;;;;;;5104079;28;20209;-55
2023/07/03 14:05:15;;;;;;;11.75;2.72;;;;;;;;;;5099294;28;20105;-53
2023/07/03 14:07:43;;;;;;;15.35;2.40;;;;;;;;;;5088560;28;20079;-57
2023/07/03 14:10:09;;;;;;;8.25;2.17;;;;;;;;;;5085129;28;20261;-56
2023/07/03 14:12:36;;;;;;;6.32;1.65;;;;;;;;;;5084759;28;20252;-52
2023/07/03 14:15:18;;;;;;;5.68;1.60;;;;;;;;;;5085001;28;20024;-56
2023/07/03 14:17:44;;;;;;;4.13;1.67;;;;;;;;;;5093551;28;20091;-52
2023/07/03 14:20:12;;;;;;;4.63;1.67;;;;;;;;;;5104935;28;20039;-55
2023/07/03 14:22:39;;;;;;;2.35;1.83;;;;;;;;;;5104881;28;20340;-57
2023/07/03 14:25:08;;;;;;;6.68;1.80;;;;;;;;;;5100093;28;20409;-54
2023/07/03 14:27:36;;;;;;;2.10;1.58;;;;;;;;;;5103760;28;20252;-54
2023/07/03 14:30:03;;;;;;;4.43;1.67;;;;;;;;;;5105006;28;20027;-53
2023/07/03 14:32:30;;;;;;;4.15;1.80;;;;;;;;;;5103323;28;20035;-59
2023/07/03 14:34:57;;;;;;;8.27;2.10;;;;;;;;;;5104784;28;20040;-59
2023/07/03 14:37:24;;;;;;;14.27;2.67;;;;;;;;;;5104148;28;20077;-56
2023/07/03 14:39:51;;;;;;;8.63;2.28;;;;;;;;;;5104049;28;20035;-57
2023/07/03 14:42:18;;;;;;;15.27;2.50;;;;;;;;;;5103422;28;20031;-54
2023/07/03 14:44:45;;;;;;;10.68;3.13;;;;;;;;;;5103064;28;20308;-54
2023/07/03 14:47:11;;;;;;;10.73;2.80;;;;;;;;;;5102493;28;20206;-56
2023/07/03 14:49:38;;;;;;;11.25;2.20;;;;;;;;;;5102955;28;20115;-54
2023/07/03 14:52:05;;;;;;;9.82;3.05;;;;;;;;;;5102723;28;20043;-53
2023/07/03 14:54:32;;;;;;;7.88;2.80;;;;;;;;;;5102670;28;20093;-54
2023/07/03 14:56:59;;;;;;;11.75;2.75;;;;;;;;;;5103009;28;20211;-55
2023/07/03 14:59:25;;;;;;;11.73;2.80;;;;;;;;;;5104532;28;20031;-55
2023/07/03 15:01:52;;;;;;;11.15;2.70;;;;;;;;;;5104117;28;20192;-54
2023/07/03 15:04:19;;;;;;;11.75;2.90;;;;;;;;;;5104452;28;20039;-52
2023/07/03 15:06:46;;;;;;;32.00;4.88;;;;;;;;;;5104308;28;20043;-52
2023/07/03 15:09:14;;;;;;;38.47;5.47;;;;;;;;;;5103902;28;20031;-55
2023/07/03 15:11:40;;;;;;;37.25;5.40;;;;;;;;;;5104146;28;20036;-56
2023/07/03 15:14:11;;;;;;;32.33;5.30;;;;;;;;;;5104297;28;20031;-54
2023/07/03 15:16:37;;;;;;;24.23;4.43;;;;;;;;;;5103931;28;20028;-52
2023/07/03 15:19:05;;;;;;;20.17;4.38;;;;;;;;;;5104087;28;20040;-52
2023/07/03 15:21:35;;;;;;;21.08;4.10;;;;;;;;;;5104055;28;20012;-54
2023/07/03 15:24:02;;;;;;;21.73;3.92;;;;;;;;;;5103831;28;20063;-53
2023/07/03 15:26:29;;;;;;;21.83;4.07;;;;;;;;;;5103960;28;20088;-54
2023/07/03 15:28:56;;;;;;;22.85;4.00;;;;;;;;;;5104038;28;20028;-53
2023/07/03 15:31:23;;;;;;;18.50;3.80;;;;;;;;;;5103816;28;20032;-53
2023/07/03 15:33:52;;;;;;;21.60;3.75;;;;;;;;;;5103920;28;20087;-54